Time;durP1;ratioP1;P1;durP2;ratioP2;P2;SDS_P1;SDS_P2;PMS_P1;PMS_P2;Temp;Humidity;BMP_temperature;BMP_pressure;BME280_temperature;BME280_humidity;BME280_pressure;Samples;Min_cycle;Max_cycle;Signal;HPM_P1;HPM_P2
2023/10/30 00:00:08;;;;;;;0.20;0.10;;;;;;;;;;5025012;28;20077;-86
2023/10/30 00:02:50;;;;;;;0.20;0.00;;;;;;;;;;5008162;28;20038;-86
2023/10/30 00:05:16;;;;;;;0.20;0.10;;;;;;;;;;5041332;28;20194;-86
2023/10/30 00:07:43;;;;;;;0.20;0.20;;;;;;;;;;4993029;28;20044;-86
2023/10/30 00:10:12;;;;;;;0.20;0.00;;;;;;;;;;5021819;28;20070;-87
2023/10/30 00:12:38;;;;;;;0.20;0.00;;;;;;;;;;5013208;28;20564;-89
2023/10/30 00:15:13;;;;;;;0.20;0.00;;;;;;;;;;5020264;28;20072;-86
2023/10/30 00:17:39;;;;;;;0.57;0.57;;;;;;;;;;5041774;28;20173;-85
2023/10/30 00:20:08;;;;;;;0.20;0.10;;;;;;;;;;5040086;28;20041;-85
2023/10/30 00:22:34;;;;;;;0.20;0.00;;;;;;;;;;5023552;28;20041;-89
2023/10/30 00:25:01;;;;;;;0.20;0.10;;;;;;;;;;5028568;28;20058;-85
2023/10/30 00:27:29;;;;;;;0.20;0.00;;;;;;;;;;5012853;28;20049;-90
2023/10/30 00:30:19;;;;;;;0.20;0.10;;;;;;;;;;5019946;28;20045;-85
2023/10/30 00:32:45;;;;;;;0.20;0.10;;;;;;;;;;4994069;28;20045;-86
2023/10/30 00:35:14;;;;;;;0.20;0.08;;;;;;;;;;4994251;28;20045;-88
2023/10/30 00:37:58;;;;;;;0.20;0.00;;;;;;;;;;4997770;28;20472;-87
2023/10/30 00:40:26;;;;;;;0.20;0.10;;;;;;;;;;5044601;28;20457;-89
2023/10/30 00:43:02;;;;;;;0.20;0.10;;;;;;;;;;4989675;28;20494;-88
2023/10/30 00:45:28;;;;;;;0.20;0.00;;;;;;;;;;5032976;28;20188;-85
2023/10/30 00:47:54;;;;;;;0.20;0.00;;;;;;;;;;4999537;28;20114;-88
2023/10/30 00:50:20;;;;;;;0.20;0.10;;;;;;;;;;5035598;28;20033;-86
2023/10/30 00:52:49;;;;;;;0.20;0.00;;;;;;;;;;5021376;28;20045;-86
2023/10/30 00:55:15;;;;;;;0.20;0.00;;;;;;;;;;5017407;28;20038;-87
2023/10/30 00:57:41;;;;;;;0.20;0.10;;;;;;;;;;5004237;28;20042;-86
2023/10/30 01:00:07;;;;;;;0.20;0.00;;;;;;;;;;5037601;28;20045;-86
2023/10/30 01:02:36;;;;;;;0.20;0.10;;;;;;;;;;5004313;28;20038;-88
2023/10/30 01:05:02;;;;;;;0.20;0.10;;;;;;;;;;5035818;28;20050;-87
2023/10/30 01:07:28;;;;;;;0.20;0.00;;;;;;;;;;5035814;28;20064;-87
2023/10/30 01:09:59;;;;;;;0.20;0.00;;;;;;;;;;5024610;28;20342;-88
2023/10/30 01:12:28;;;;;;;0.20;0.10;;;;;;;;;;5041506;28;20204;-86
2023/10/30 01:15:00;;;;;;;0.20;0.10;;;;;;;;;;4983981;28;20213;-87
2023/10/30 01:17:29;;;;;;;0.20;0.10;;;;;;;;;;4989587;28;20047;-87
2023/10/30 01:19:55;;;;;;;0.20;0.10;;;;;;;;;;5032533;28;20053;-85
2023/10/30 01:22:21;;;;;;;0.20;0.00;;;;;;;;;;5036829;28;20029;-88
2023/10/30 01:24:47;;;;;;;0.20;0.00;;;;;;;;;;5031754;28;20044;-86
2023/10/30 01:27:13;;;;;;;0.20;0.00;;;;;;;;;;5033396;28;20037;-87
2023/10/30 01:29:39;;;;;;;0.20;0.00;;;;;;;;;;4987685;28;20033;-86
2023/10/30 01:32:17;;;;;;;0.20;0.00;;;;;;;;;;5036638;28;20127;-88
2023/10/30 01:34:45;;;;;;;0.50;0.50;;;;;;;;;;5022478;28;20410;-86
2023/10/30 01:37:11;;;;;;;0.20;0.08;;;;;;;;;;5031799;28;20038;-87
2023/10/30 01:39:51;;;;;;;0.20;0.00;;;;;;;;;;4996886;28;20052;-87
2023/10/30 01:42:32;;;;;;;0.50;0.50;;;;;;;;;;4994901;28;20517;-87
2023/10/30 01:45:05;;;;;;;0.20;0.10;;;;;;;;;;4994929;28;20565;-86
2023/10/30 01:47:31;;;;;;;0.20;0.15;;;;;;;;;;5006303;28;20077;-90
2023/10/30 01:49:57;;;;;;;0.20;0.00;;;;;;;;;;5024704;28;20056;-85
2023/10/30 01:52:26;;;;;;;0.50;0.38;;;;;;;;;;5017673;28;20084;-86
2023/10/30 01:54:55;;;;;;;0.20;0.00;;;;;;;;;;5002070;28;20041;-86
2023/10/30 01:57:29;;;;;;;0.20;0.10;;;;;;;;;;5003350;28;20088;-87
2023/10/30 01:59:58;;;;;;;0.20;0.10;;;;;;;;;;5007751;28;20124;-90
2023/10/30 02:02:29;;;;;;;0.20;0.10;;;;;;;;;;5009491;28;20102;-86
2023/10/30 02:04:55;;;;;;;0.20;0.10;;;;;;;;;;5040866;28;20147;-87
2023/10/30 02:07:24;;;;;;;0.20;0.10;;;;;;;;;;5038784;28;20045;-86
2023/10/30 02:09:50;;;;;;;0.20;0.10;;;;;;;;;;5045153;28;20051;-87
2023/10/30 02:12:17;;;;;;;0.20;0.08;;;;;;;;;;5040195;28;20049;-86
2023/10/30 02:14:49;;;;;;;0.20;0.10;;;;;;;;;;5035404;28;20038;-87
2023/10/30 02:17:15;;;;;;;0.20;0.10;;;;;;;;;;5010735;28;20541;-86
2023/10/30 02:19:46;;;;;;;0.40;0.20;;;;;;;;;;5028200;28;20087;-84
2023/10/30 02:22:18;;;;;;;0.20;0.00;;;;;;;;;;5031346;28;20469;-86
2023/10/30 02:24:53;;;;;;;0.20;0.00;;;;;;;;;;5027313;28;20030;-88
2023/10/30 02:27:19;;;;;;;0.20;0.10;;;;;;;;;;5028262;28;20065;-85
2023/10/30 02:29:45;;;;;;;0.20;0.05;;;;;;;;;;4989168;28;20088;-85
2023/10/30 02:32:14;;;;;;;0.20;0.00;;;;;;;;;;5038912;28;20478;-86
2023/10/30 02:34:40;;;;;;;0.20;0.00;;;;;;;;;;5021946;28;20064;-84
2023/10/30 02:37:06;;;;;;;0.20;0.10;;;;;;;;;;5007834;28;20383;-86
2023/10/30 02:39:33;;;;;;;0.20;0.10;;;;;;;;;;5034235;28;20489;-86
2023/10/30 02:42:02;;;;;;;0.30;0.30;;;;;;;;;;5034251;28;20116;-85
2023/10/30 02:44:41;;;;;;;0.20;0.00;;;;;;;;;;5007676;28;20034;-87
2023/10/30 02:47:07;;;;;;;0.20;0.10;;;;;;;;;;5044735;28;20038;-86
2023/10/30 02:49:34;;;;;;;0.20;0.00;;;;;;;;;;5033989;28;20129;-85
2023/10/30 02:52:00;;;;;;;0.20;0.20;;;;;;;;;;5035753;28;20068;-85
2023/10/30 02:54:26;;;;;;;0.20;0.00;;;;;;;;;;4999731;28;20080;-85
2023/10/30 02:56:55;;;;;;;0.20;0.00;;;;;;;;;;5008981;28;20564;-88
2023/10/30 02:59:21;;;;;;;1.80;1.65;;;;;;;;;;4988776;28;20566;-86
2023/10/30 03:02:00;;;;;;;0.60;0.60;;;;;;;;;;5004185;28;20056;-86
2023/10/30 03:04:46;;;;;;;0.82;0.55;;;;;;;;;;5031234;28;20036;-84
2023/10/30 03:07:22;;;;;;;0.20;0.00;;;;;;;;;;5014046;28;20043;-86
2023/10/30 03:09:49;;;;;;;0.20;0.03;;;;;;;;;;4996950;28;20157;-88
2023/10/30 03:12:18;;;;;;;0.20;0.10;;;;;;;;;;5039211;28;20045;-89
2023/10/30 03:14:44;;;;;;;0.20;0.00;;;;;;;;;;5011010;28;20128;-86
2023/10/30 03:17:10;;;;;;;1.08;1.05;;;;;;;;;;5006966;28;20045;-87
2023/10/30 03:19:39;;;;;;;0.20;0.10;;;;;;;;;;5014557;28;20045;-87
2023/10/30 03:22:05;;;;;;;0.20;0.00;;;;;;;;;;5025904;28;20499;-85
2023/10/30 03:24:31;;;;;;;0.20;0.00;;;;;;;;;;5008383;28;20037;-88
2023/10/30 03:27:04;;;;;;;0.20;0.00;;;;;;;;;;5032007;28;20116;-86
2023/10/30 03:29:39;;;;;;;0.20;0.00;;;;;;;;;;5007032;28;20196;-87
2023/10/30 03:32:05;;;;;;;0.20;0.10;;;;;;;;;;5013595;28;20121;-85
2023/10/30 03:34:31;;;;;;;3.50;0.15;;;;;;;;;;4991122;28;20482;-84
2023/10/30 03:36:57;;;;;;;0.57;0.52;;;;;;;;;;5042198;28;20128;-87
2023/10/30 03:39:26;;;;;;;0.43;0.40;;;;;;;;;;5041379;28;20041;-85
2023/10/30 03:42:04;;;;;;;0.20;0.10;;;;;;;;;;5026414;28;20049;-86
2023/10/30 03:44:30;;;;;;;0.20;0.10;;;;;;;;;;5044583;28;20053;-86
2023/10/30 03:46:56;;;;;;;0.20;0.10;;;;;;;;;;5024629;28;20042;-86
2023/10/30 03:49:23;;;;;;;0.20;0.03;;;;;;;;;;5004660;28;20457;-88
2023/10/30 03:51:52;;;;;;;0.20;0.10;;;;;;;;;;5029846;28;20124;-87
2023/10/30 03:54:22;;;;;;;0.20;0.10;;;;;;;;;;5029983;28;20041;-85
2023/10/30 03:56:48;;;;;;;0.20;0.00;;;;;;;;;;5027197;28;20308;-83
2023/10/30 03:59:17;;;;;;;0.20;0.00;;;;;;;;;;5003380;28;20983;-89
2023/10/30 04:01:46;;;;;;;0.20;0.03;;;;;;;;;;5008857;28;20048;-87
2023/10/30 04:04:12;;;;;;;0.20;0.00;;;;;;;;;;5014811;28;20077;-85
2023/10/30 04:06:44;;;;;;;0.63;0.20;;;;;;;;;;5010123;28;20037;-86
2023/10/30 04:09:10;;;;;;;0.20;0.00;;;;;;;;;;5008112;28;20304;-85
2023/10/30 04:11:39;;;;;;;0.20;0.10;;;;;;;;;;5040897;28;20503;-86
2023/10/30 04:14:05;;;;;;;0.20;0.08;;;;;;;;;;5025549;28;20033;-88
2023/10/30 04:16:31;;;;;;;0.20;0.00;;;;;;;;;;5010316;28;20048;-87
2023/10/30 04:18:59;;;;;;;0.20;0.00;;;;;;;;;;5042700;28;20051;-86
2023/10/30 04:21:32;;;;;;;0.20;0.00;;;;;;;;;;5028512;28;20143;-85
2023/10/30 04:23:58;;;;;;;0.20;0.10;;;;;;;;;;5055347;28;20037;-85
2023/10/30 04:26:24;;;;;;;0.20;0.00;;;;;;;;;;5039954;28;20120;-85
2023/10/30 04:28:50;;;;;;;0.20;0.10;;;;;;;;;;5004222;28;20041;-88
2023/10/30 04:31:22;;;;;;;0.20;0.10;;;;;;;;;;5012673;28;20044;-86
2023/10/30 04:33:49;;;;;;;0.20;0.10;;;;;;;;;;5040036;28;20136;-87
2023/10/30 04:36:16;;;;;;;0.20;0.00;;;;;;;;;;5002922;28;20557;-87
2023/10/30 04:38:56;;;;;;;0.20;0.00;;;;;;;;;;5053708;28;20441;-87
2023/10/30 04:41:25;;;;;;;0.20;0.20;;;;;;;;;;5043372;28;20504;-92
2023/10/30 04:43:51;;;;;;;0.20;0.10;;;;;;;;;;5025996;28;20037;-84
2023/10/30 04:46:21;;;;;;;0.20;0.08;;;;;;;;;;5053960;28;20140;-88
2023/10/30 04:48:47;;;;;;;0.20;0.10;;;;;;;;;;5052753;28;20119;-84
2023/10/30 04:51:13;;;;;;;0.20;0.10;;;;;;;;;;5042250;28;20048;-85
2023/10/30 04:53:39;;;;;;;0.20;0.00;;;;;;;;;;5032074;28;20038;-84
2023/10/30 04:56:07;;;;;;;0.20;0.05;;;;;;;;;;5054449;28;20045;-88
2023/10/30 04:58:33;;;;;;;0.20;0.10;;;;;;;;;;5035079;28;20037;-86
2023/10/30 05:01:08;;;;;;;0.40;0.20;;;;;;;;;;5035888;28;20084;-87
2023/10/30 05:03:35;;;;;;;0.20;0.10;;;;;;;;;;5040637;28;20459;-84
2023/10/30 05:06:04;;;;;;;0.20;0.10;;;;;;;;;;5024122;28;20037;-84
2023/10/30 05:08:30;;;;;;;0.20;0.10;;;;;;;;;;5061539;28;20483;-83
2023/10/30 05:10:59;;;;;;;0.20;0.00;;;;;;;;;;5027811;28;20041;-88
2023/10/30 05:13:25;;;;;;;0.20;0.00;;;;;;;;;;5021315;28;20497;-84
2023/10/30 05:15:51;;;;;;;0.20;0.03;;;;;;;;;;5018575;28;20405;-88
2023/10/30 05:18:21;;;;;;;0.30;0.15;;;;;;;;;;5037907;28;20035;-85
2023/10/30 05:20:47;;;;;;;0.20;0.10;;;;;;;;;;5048716;28;20052;-87
2023/10/30 05:23:13;;;;;;;0.20;0.00;;;;;;;;;;5013599;28;20056;-83
2023/10/30 05:25:39;;;;;;;0.20;0.10;;;;;;;;;;5035449;28;20064;-84
2023/10/30 05:28:05;;;;;;;0.20;0.00;;;;;;;;;;5038133;28;20382;-86
2023/10/30 05:30:33;;;;;;;0.20;0.10;;;;;;;;;;5053429;28;20045;-86
2023/10/30 05:32:59;;;;;;;0.20;0.10;;;;;;;;;;5051770;28;20537;-85
2023/10/30 05:35:25;;;;;;;2.75;2.10;;;;;;;;;;5035146;28;20055;-84
2023/10/30 05:37:51;;;;;;;0.20;0.10;;;;;;;;;;5039369;28;20484;-83
2023/10/30 05:40:17;;;;;;;0.20;0.10;;;;;;;;;;5018647;28;20041;-84
2023/10/30 05:42:43;;;;;;;0.20;0.00;;;;;;;;;;5047876;22;20046;-80
2023/10/30 05:45:10;;;;;;;3.50;0.65;;;;;;;;;;4992233;28;20426;-81
2023/10/30 05:47:36;;;;;;;0.20;0.10;;;;;;;;;;5008582;28;20175;-81
2023/10/30 05:50:02;;;;;;;0.20;0.08;;;;;;;;;;4994931;28;20052;-81
2023/10/30 05:52:29;;;;;;;0.20;0.00;;;;;;;;;;5027436;28;20094;-81
2023/10/30 05:54:55;;;;;;;0.20;0.00;;;;;;;;;;5009257;28;20044;-79
2023/10/30 05:57:21;;;;;;;0.20;0.10;;;;;;;;;;5011597;28;20038;-81
2023/10/30 05:59:47;;;;;;;0.20;0.00;;;;;;;;;;4990911;28;20038;-81
2023/10/30 06:02:14;;;;;;;0.20;0.00;;;;;;;;;;5005485;28;20046;-80
2023/10/30 06:04:40;;;;;;;0.20;0.10;;;;;;;;;;5023631;28;20565;-80
2023/10/30 06:07:07;;;;;;;0.20;0.00;;;;;;;;;;4992012;28;20211;-82
2023/10/30 06:09:33;;;;;;;0.20;0.00;;;;;;;;;;4986868;28;20042;-81
2023/10/30 06:11:59;;;;;;;0.20;0.00;;;;;;;;;;5006423;28;20578;-80
2023/10/30 06:14:25;;;;;;;0.20;0.10;;;;;;;;;;5007505;28;20151;-80
2023/10/30 06:16:51;;;;;;;0.20;0.05;;;;;;;;;;4999093;28;20095;-81
2023/10/30 06:19:17;;;;;;;0.20;0.00;;;;;;;;;;5015335;28;20049;-82
2023/10/30 06:21:43;;;;;;;0.20;0.10;;;;;;;;;;5003631;28;20048;-81
2023/10/30 06:24:09;;;;;;;0.20;0.10;;;;;;;;;;4990823;28;20528;-80
2023/10/30 06:26:40;;;;;;;0.20;0.00;;;;;;;;;;5007015;28;20446;-81
2023/10/30 06:29:06;;;;;;;0.20;0.08;;;;;;;;;;5006821;28;20099;-79
2023/10/30 06:31:33;;;;;;;0.20;0.10;;;;;;;;;;4997790;28;20102;-81
2023/10/30 06:33:59;;;;;;;0.35;0.10;;;;;;;;;;5003965;28;20041;-81
2023/10/30 06:36:25;;;;;;;0.20;0.10;;;;;;;;;;4992887;28;20049;-81
2023/10/30 06:38:51;;;;;;;0.20;0.10;;;;;;;;;;5012702;28;20104;-80
2023/10/30 06:41:17;;;;;;;0.20;0.10;;;;;;;;;;4993871;28;20777;-81
2023/10/30 06:43:43;;;;;;;0.20;0.00;;;;;;;;;;4993556;28;20042;-81
2023/10/30 06:46:09;;;;;;;0.20;0.00;;;;;;;;;;5009473;28;20034;-80
2023/10/30 06:48:35;;;;;;;0.20;0.00;;;;;;;;;;5005583;28;20054;-81
2023/10/30 06:51:02;;;;;;;0.20;0.05;;;;;;;;;;5009071;28;20102;-79
2023/10/30 06:53:28;;;;;;;0.20;0.00;;;;;;;;;;5011669;28;20064;-81
2023/10/30 06:55:54;;;;;;;0.20;0.00;;;;;;;;;;5001747;28;20109;-81
2023/10/30 06:58:23;;;;;;;0.20;0.00;;;;;;;;;;5008593;28;20363;-80
2023/10/30 07:00:49;;;;;;;0.20;0.00;;;;;;;;;;5004452;28;20041;-80
2023/10/30 07:03:15;;;;;;;0.20;0.10;;;;;;;;;;5000257;28;20417;-78
2023/10/30 07:05:44;;;;;;;0.20;0.00;;;;;;;;;;4994609;28;20487;-80
2023/10/30 07:08:10;;;;;;;1.40;0.75;;;;;;;;;;5013655;28;20096;-79
2023/10/30 07:10:36;;;;;;;0.20;0.00;;;;;;;;;;4997773;28;20041;-78
2023/10/30 07:13:02;;;;;;;0.20;0.03;;;;;;;;;;5000243;28;20033;-80
2023/10/30 07:15:28;;;;;;;0.20;0.00;;;;;;;;;;4999819;28;20590;-80
2023/10/30 07:17:57;;;;;;;0.20;0.00;;;;;;;;;;4992972;28;20045;-80
2023/10/30 07:20:24;;;;;;;0.20;0.00;;;;;;;;;;4990967;28;20179;-80
2023/10/30 07:22:50;;;;;;;0.20;0.10;;;;;;;;;;4996317;28;20033;-81
2023/10/30 07:25:16;;;;;;;0.20;0.00;;;;;;;;;;5006100;28;20077;-81
2023/10/30 07:27:42;;;;;;;0.20;0.10;;;;;;;;;;5009161;28;20049;-80
2023/10/30 07:30:08;;;;;;;0.20;0.00;;;;;;;;;;4991918;28;21059;-81
2023/10/30 07:32:35;;;;;;;0.20;0.10;;;;;;;;;;4998330;28;20562;-81
2023/10/30 07:35:01;;;;;;;0.20;0.17;;;;;;;;;;4994474;28;20111;-80
2023/10/30 07:37:27;;;;;;;0.20;0.10;;;;;;;;;;4994484;28;20037;-80
2023/10/30 07:39:53;;;;;;;0.20;0.10;;;;;;;;;;5011057;28;20073;-79
2023/10/30 07:42:19;;;;;;;0.20;0.00;;;;;;;;;;4989186;28;20087;-80
2023/10/30 07:44:45;;;;;;;0.20;0.10;;;;;;;;;;4987093;28;20443;-80
2023/10/30 07:47:11;;;;;;;0.20;0.08;;;;;;;;;;5011604;28;20034;-81
2023/10/30 07:49:37;;;;;;;0.20;0.10;;;;;;;;;;4993057;28;20037;-81
2023/10/30 07:52:03;;;;;;;0.20;0.10;;;;;;;;;;4990145;28;20140;-83
2023/10/30 07:54:31;;;;;;;0.20;0.00;;;;;;;;;;4993738;28;20421;-81
2023/10/30 07:56:57;;;;;;;0.20;0.00;;;;;;;;;;4994527;28;20075;-80
2023/10/30 07:59:23;;;;;;;0.20;0.10;;;;;;;;;;5010615;28;20045;-81
2023/10/30 08:01:50;;;;;;;0.20;0.20;;;;;;;;;;4997399;28;20038;-81
2023/10/30 08:04:16;;;;;;;3.50;0.95;;;;;;;;;;4993444;28;20037;-80
2023/10/30 08:06:42;;;;;;;0.32;0.32;;;;;;;;;;4991949;28;20045;-78
2023/10/30 08:09:08;;;;;;;0.20;0.00;;;;;;;;;;4990777;28;20045;-81
2023/10/30 08:11:35;;;;;;;0.43;0.43;;;;;;;;;;5008812;28;20123;-79
2023/10/30 08:14:01;;;;;;;0.20;0.00;;;;;;;;;;5027981;28;20071;-78
2023/10/30 08:16:27;;;;;;;0.20;0.00;;;;;;;;;;5011190;28;20084;-80
2023/10/30 08:18:53;;;;;;;0.20;0.00;;;;;;;;;;4999372;28;20037;-82
2023/10/30 08:21:19;;;;;;;0.20;0.10;;;;;;;;;;5005674;28;20041;-82
2023/10/30 08:23:45;;;;;;;0.20;0.10;;;;;;;;;;4992668;28;20037;-80
2023/10/30 08:26:11;;;;;;;0.22;0.10;;;;;;;;;;5013933;28;20033;-81
2023/10/30 08:28:38;;;;;;;0.20;0.00;;;;;;;;;;4992545;28;20523;-80
2023/10/30 08:31:04;;;;;;;0.20;0.05;;;;;;;;;;4988445;28;20061;-83
2023/10/30 08:33:30;;;;;;;0.20;0.08;;;;;;;;;;5006147;28;20052;-81
2023/10/30 08:35:56;;;;;;;0.20;0.15;;;;;;;;;;4988942;28;20041;-80
2023/10/30 08:38:22;;;;;;;0.20;0.00;;;;;;;;;;4988682;28;20044;-83
2023/10/30 08:40:48;;;;;;;0.20;0.10;;;;;;;;;;4994550;28;20063;-81
2023/10/30 08:43:14;;;;;;;0.20;0.10;;;;;;;;;;4991796;28;20038;-82
2023/10/30 08:45:41;;;;;;;7.22;1.10;;;;;;;;;;4995242;28;20398;-80
2023/10/30 08:48:07;;;;;;;1.20;0.20;;;;;;;;;;4993329;28;20041;-81
2023/10/30 08:50:33;;;;;;;0.20;0.10;;;;;;;;;;5009450;28;20041;-81
2023/10/30 08:52:59;;;;;;;0.20;0.10;;;;;;;;;;4991072;28;21261;-82
2023/10/30 08:55:25;;;;;;;11.70;0.52;;;;;;;;;;4990821;28;20056;-82
2023/10/30 08:57:51;;;;;;;0.20;0.10;;;;;;;;;;4989230;28;20038;-79
2023/10/30 09:00:17;;;;;;;0.20;0.15;;;;;;;;;;5007342;28;20429;-83
2023/10/30 09:02:43;;;;;;;0.20;0.10;;;;;;;;;;5006640;28;20064;-80
2023/10/30 09:05:10;;;;;;;0.25;0.25;;;;;;;;;;5008552;28;20033;-84
2023/10/30 09:07:36;;;;;;;0.20;0.10;;;;;;;;;;4986522;28;20065;-80
2023/10/30 09:10:03;;;;;;;1.55;0.50;;;;;;;;;;4993943;28;20513;-80
2023/10/30 09:12:29;;;;;;;0.20;0.00;;;;;;;;;;4987088;28;20493;-83
2023/10/30 09:14:55;;;;;;;0.20;0.10;;;;;;;;;;4993554;28;20080;-81
2023/10/30 09:17:21;;;;;;;0.20;0.05;;;;;;;;;;5005972;28;20080;-81
2023/10/30 09:19:47;;;;;;;0.20;0.10;;;;;;;;;;4991566;28;20417;-82
2023/10/30 09:22:13;;;;;;;0.20;0.00;;;;;;;;;;4990546;28;20056;-80
2023/10/30 09:24:39;;;;;;;0.30;0.28;;;;;;;;;;5007481;28;20600;-80
2023/10/30 09:27:05;;;;;;;0.20;0.05;;;;;;;;;;5005296;28;20092;-81
2023/10/30 09:29:31;;;;;;;0.20;0.00;;;;;;;;;;4992820;28;20038;-80
2023/10/30 09:31:59;;;;;;;0.20;0.08;;;;;;;;;;5008539;28;20575;-81
2023/10/30 09:34:25;;;;;;;0.20;0.08;;;;;;;;;;5004136;28;20046;-80
2023/10/30 09:36:51;;;;;;;0.52;0.52;;;;;;;;;;4994552;28;20136;-79
2023/10/30 09:39:17;;;;;;;0.20;0.00;;;;;;;;;;4993757;28;20052;-81
2023/10/30 09:41:45;;;;;;;0.20;0.10;;;;;;;;;;5006490;28;20461;-79
2023/10/30 09:44:12;;;;;;;0.52;0.32;;;;;;;;;;4992452;28;20498;-80
2023/10/30 09:46:41;;;;;;;0.20;0.10;;;;;;;;;;5003159;28;20409;-80
2023/10/30 09:49:10;;;;;;;0.20;0.00;;;;;;;;;;4992833;28;20373;-77
2023/10/30 09:51:36;;;;;;;0.20;0.10;;;;;;;;;;4988382;28;20048;-80
2023/10/30 09:54:03;;;;;;;0.20;0.00;;;;;;;;;;5005737;28;20045;-79
2023/10/30 09:56:31;;;;;;;0.20;0.10;;;;;;;;;;5004220;28;20269;-81
2023/10/30 09:58:59;;;;;;;0.20;0.00;;;;;;;;;;5004973;28;20107;-80
2023/10/30 10:01:26;;;;;;;0.20;0.00;;;;;;;;;;4985143;28;20046;-82
2023/10/30 10:03:52;;;;;;;0.20;0.00;;;;;;;;;;5004932;28;20038;-81
2023/10/30 10:06:18;;;;;;;0.20;0.00;;;;;;;;;;4982561;28;20030;-80
2023/10/30 10:08:44;;;;;;;0.20;0.00;;;;;;;;;;4993638;28;20056;-80
2023/10/30 10:11:10;;;;;;;0.22;0.20;;;;;;;;;;5010625;28;20044;-82
2023/10/30 10:13:43;;;;;;;0.20;0.10;;;;;;;;;;4988433;28;20033;-80
2023/10/30 10:16:10;;;;;;;0.20;0.00;;;;;;;;;;5007328;28;20033;-80
2023/10/30 10:18:36;;;;;;;0.20;0.10;;;;;;;;;;4996081;28;20038;-81
2023/10/30 10:21:03;;;;;;;0.20;0.00;;;;;;;;;;4993192;28;20033;-82
2023/10/30 10:23:33;;;;;;;0.20;0.10;;;;;;;;;;5007431;28;20049;-82
2023/10/30 10:26:00;;;;;;;0.20;0.03;;;;;;;;;;5006918;28;20033;-79
2023/10/30 10:28:27;;;;;;;0.20;0.00;;;;;;;;;;4997139;28;20051;-80
2023/10/30 10:30:53;;;;;;;0.20;0.00;;;;;;;;;;5000645;28;20855;-82
2023/10/30 10:33:21;;;;;;;0.20;0.10;;;;;;;;;;5024788;28;20504;-80
2023/10/30 10:35:48;;;;;;;0.75;0.52;;;;;;;;;;5001033;28;20072;-81
2023/10/30 10:38:16;;;;;;;0.20;0.10;;;;;;;;;;4996002;28;20038;-80
2023/10/30 10:40:44;;;;;;;0.20;0.00;;;;;;;;;;5008440;28;20571;-79
2023/10/30 10:43:10;;;;;;;0.20;0.10;;;;;;;;;;5014358;28;20037;-78
2023/10/30 10:45:37;;;;;;;0.25;0.05;;;;;;;;;;5012514;28;20120;-80
2023/10/30 10:48:05;;;;;;;0.20;0.10;;;;;;;;;;4992993;28;20045;-79
2023/10/30 10:50:33;;;;;;;0.20;0.10;;;;;;;;;;5010932;28;20048;-82
2023/10/30 10:53:00;;;;;;;0.20;0.00;;;;;;;;;;5007472;28;20052;-80
2023/10/30 10:55:27;;;;;;;0.40;0.15;;;;;;;;;;5007850;28;20052;-80
2023/10/30 10:57:57;;;;;;;0.20;0.00;;;;;;;;;;5008881;28;21624;-80
2023/10/30 11:00:25;;;;;;;0.20;0.10;;;;;;;;;;5009971;28;20046;-79
2023/10/30 11:02:51;;;;;;;0.20;0.00;;;;;;;;;;4995036;28;20049;-79
2023/10/30 11:05:18;;;;;;;0.20;0.00;;;;;;;;;;5010645;28;20041;-81
2023/10/30 11:08:07;;;;;;;0.20;0.10;;;;;;;;;;4995626;28;20064;-81
2023/10/30 11:10:35;;;;;;;0.20;0.20;;;;;;;;;;4997437;28;20049;-80
2023/10/30 11:13:24;;;;;;;0.20;0.10;;;;;;;;;;5008252;28;20116;-81
2023/10/30 11:15:57;;;;;;;0.20;0.10;;;;;;;;;;4987710;28;20135;-79
2023/10/30 11:18:24;;;;;;;0.20;0.00;;;;;;;;;;5011093;28;20048;-81
2023/10/30 11:21:16;;;;;;;0.20;0.10;;;;;;;;;;4992848;28;20053;-81
2023/10/30 11:23:46;;;;;;;0.25;0.17;;;;;;;;;;5008931;28;20048;-82
2023/10/30 11:26:39;;;;;;;0.55;0.50;;;;;;;;;;5005530;28;20041;-82
2023/10/30 11:29:06;;;;;;;;;;;;;;;;;;5027091;28;20475;-80
2023/10/30 11:31:32;;;;;;;0.20;0.00;;;;;;;;;;5011019;28;20312;-81
2023/10/30 11:34:16;;;;;;;0.20;0.10;;;;;;;;;;5008718;28;20042;-80
2023/10/30 11:36:42;;;;;;;0.20;0.20;;;;;;;;;;5025692;28;20038;-80
2023/10/30 11:39:11;;;;;;;0.22;0.10;;;;;;;;;;5006383;28;20040;-81
2023/10/30 11:44:12;;;;;;;0.20;0.00;;;;;;;;;;5015076;28;20189;-84
2023/10/30 11:46:46;;;;;;;0.20;0.00;;;;;;;;;;5001746;28;20033;-88
2023/10/30 11:49:15;;;;;;;0.20;0.00;;;;;;;;;;4996662;28;20524;-83
2023/10/30 11:51:42;;;;;;;0.85;0.28;;;;;;;;;;4991781;28;20041;-85
2023/10/30 11:54:08;;;;;;;0.20;0.00;;;;;;;;;;5022895;28;20045;-84
2023/10/30 11:56:34;;;;;;;0.20;0.10;;;;;;;;;;5008035;28;20425;-86
2023/10/30 11:59:01;;;;;;;0.20;0.00;;;;;;;;;;5016316;28;20088;-85
2023/10/30 12:01:28;;;;;;;0.20;0.00;;;;;;;;;;5005835;28;20049;-84
2023/10/30 12:03:56;;;;;;;0.20;0.10;;;;;;;;;;5003940;28;20045;-84
2023/10/30 12:06:27;;;;;;;0.20;0.00;;;;;;;;;;5001977;28;20032;-86
2023/10/30 12:08:53;;;;;;;0.20;0.00;;;;;;;;;;5006615;28;20096;-84
2023/10/30 12:11:20;;;;;;;0.20;0.05;;;;;;;;;;5016945;28;20092;-88
2023/10/30 12:13:51;;;;;;;0.30;0.25;;;;;;;;;;5006397;28;20502;-88
2023/10/30 12:16:23;;;;;;;0.20;0.03;;;;;;;;;;5001164;28;20041;-84
2023/10/30 12:18:50;;;;;;;0.20;0.00;;;;;;;;;;5019691;28;20561;-87
2023/10/30 12:21:18;;;;;;;0.20;0.05;;;;;;;;;;4999681;28;20034;-88
2023/10/30 12:23:55;;;;;;;0.20;0.00;;;;;;;;;;4995797;28;20045;-87
2023/10/30 12:26:22;;;;;;;0.20;0.00;;;;;;;;;;5004400;28;20544;-86
2023/10/30 12:28:51;;;;;;;0.35;0.35;;;;;;;;;;4992941;28;20060;-88
2023/10/30 12:31:22;;;;;;;0.20;0.10;;;;;;;;;;4989426;28;20042;-86
2023/10/30 12:33:48;;;;;;;0.20;0.10;;;;;;;;;;5015625;28;20737;-85
2023/10/30 12:36:14;;;;;;;0.20;0.00;;;;;;;;;;4994534;28;20030;-87
2023/10/30 12:38:40;;;;;;;0.20;0.00;;;;;;;;;;5004310;28;20226;-83
2023/10/30 12:41:07;;;;;;;0.20;0.10;;;;;;;;;;5001917;28;20490;-86
2023/10/30 12:43:44;;;;;;;0.20;0.00;;;;;;;;;;5005504;28;21593;-85
2023/10/30 12:46:10;;;;;;;0.20;0.00;;;;;;;;;;5003345;28;20117;-85
2023/10/30 12:48:39;;;;;;;0.20;0.10;;;;;;;;;;5008549;28;20049;-85
2023/10/30 12:51:05;;;;;;;0.20;0.10;;;;;;;;;;5001442;28;20033;-84
2023/10/30 12:53:41;;;;;;;0.20;0.00;;;;;;;;;;5005489;28;20139;-86
2023/10/30 12:56:09;;;;;;;0.20;0.10;;;;;;;;;;4984548;28;20049;-88
2023/10/30 12:58:38;;;;;;;0.20;0.10;;;;;;;;;;4998693;28;20128;-88
2023/10/30 13:01:10;;;;;;;0.20;0.10;;;;;;;;;;5020178;28;20041;-87
2023/10/30 13:03:37;;;;;;;0.45;0.45;;;;;;;;;;4999887;28;20038;-85
2023/10/30 13:06:03;;;;;;;0.65;0.65;;;;;;;;;;4985857;28;20092;-84
2023/10/30 13:08:32;;;;;;;0.20;0.08;;;;;;;;;;5003891;28;20163;-87
2023/10/30 13:10:58;;;;;;;0.20;0.10;;;;;;;;;;4999997;28;20038;-85
2023/10/30 13:13:27;;;;;;;0.20;0.00;;;;;;;;;;5009656;28;20483;-84
2023/10/30 13:15:56;;;;;;;0.20;0.10;;;;;;;;;;4997025;28;20563;-85
2023/10/30 13:18:25;;;;;;;0.22;0.10;;;;;;;;;;5004791;28;20441;-85
2023/10/30 13:20:51;;;;;;;0.20;0.03;;;;;;;;;;5023722;28;20115;-85
2023/10/30 13:23:21;;;;;;;0.20;0.00;;;;;;;;;;5000921;28;20049;-86
2023/10/30 13:25:50;;;;;;;0.20;0.10;;;;;;;;;;5002368;28;20076;-87
2023/10/30 13:28:18;;;;;;;0.20;0.00;;;;;;;;;;5007395;28;20518;-85
2023/10/30 13:30:53;;;;;;;0.20;0.08;;;;;;;;;;5022621;28;20464;-84
2023/10/30 13:33:19;;;;;;;0.40;0.40;;;;;;;;;;5005104;28;20179;-85
2023/10/30 13:35:45;;;;;;;0.20;0.00;;;;;;;;;;5005693;28;20042;-84
2023/10/30 13:38:17;;;;;;;1.52;1.38;;;;;;;;;;4989297;28;20498;-86
2023/10/30 13:40:43;;;;;;;0.20;0.00;;;;;;;;;;4997240;28;20516;-84
2023/10/30 13:43:12;;;;;;;0.20;0.10;;;;;;;;;;5014695;28;20034;-84
2023/10/30 13:45:38;;;;;;;0.20;0.10;;;;;;;;;;5006477;28;20568;-84
2023/10/30 13:48:04;;;;;;;0.20;0.10;;;;;;;;;;5000819;28;20041;-84
2023/10/30 13:50:30;;;;;;;0.20;0.10;;;;;;;;;;4990901;28;20135;-85
2023/10/30 13:52:56;;;;;;;0.20;0.10;;;;;;;;;;4988668;28;20056;-84
2023/10/30 13:55:23;;;;;;;0.20;0.20;;;;;;;;;;5007243;28;20262;-85
2023/10/30 13:58:02;;;;;;;0.20;0.00;;;;;;;;;;5006443;28;20066;-85
2023/10/30 14:00:30;;;;;;;0.20;0.03;;;;;;;;;;5005265;28;20077;-86
2023/10/30 14:02:57;;;;;;;0.20;0.00;;;;;;;;;;5007683;28;20034;-85
2023/10/30 14:05:23;;;;;;;0.20;0.00;;;;;;;;;;4991212;28;20045;-84
2023/10/30 14:07:49;;;;;;;0.40;0.25;;;;;;;;;;5007379;28;20042;-84
2023/10/30 14:10:15;;;;;;;0.20;0.00;;;;;;;;;;5022720;28;20080;-83
2023/10/30 14:12:41;;;;;;;0.20;0.08;;;;;;;;;;5009065;28;20121;-85
2023/10/30 14:15:08;;;;;;;0.20;0.00;;;;;;;;;;5009384;28;20053;-83
2023/10/30 14:17:36;;;;;;;0.20;0.03;;;;;;;;;;5004600;28;20053;-84
2023/10/30 14:20:02;;;;;;;0.20;0.00;;;;;;;;;;5006311;28;20057;-84
2023/10/30 14:22:29;;;;;;;0.20;0.00;;;;;;;;;;5006836;28;20041;-83
2023/10/30 14:24:56;;;;;;;0.20;0.00;;;;;;;;;;5007468;28;20529;-85
2023/10/30 14:27:22;;;;;;;0.20;0.10;;;;;;;;;;5007811;28;20033;-83
2023/10/30 14:29:48;;;;;;;1.63;0.30;;;;;;;;;;5023379;28;20409;-85
2023/10/30 14:32:14;;;;;;;0.20;0.00;;;;;;;;;;4985776;28;20045;-84
2023/10/30 14:34:40;;;;;;;0.20;0.08;;;;;;;;;;4985519;28;20048;-84
2023/10/30 14:37:07;;;;;;;0.20;0.00;;;;;;;;;;4989521;28;20526;-83
2023/10/30 14:39:33;;;;;;;0.20;0.10;;;;;;;;;;5018439;28;20049;-83
2023/10/30 14:41:59;;;;;;;0.20;0.10;;;;;;;;;;4993896;28;20044;-83
2023/10/30 14:44:25;;;;;;;0.20;0.05;;;;;;;;;;5013546;28;20128;-83
2023/10/30 14:46:51;;;;;;;0.20;0.10;;;;;;;;;;5009348;28;20080;-83
2023/10/30 14:49:17;;;;;;;0.20;0.10;;;;;;;;;;5006941;28;20037;-83